This is the latest recevied weather packets stored in our database for station/object 9W2CHF-3. If no packets are shown the sender has not sent any weather packets the latest 10 day(s).
| Time | Temp. | Humidity | Pressure | Rain* | Wind** | Luminosity | Snow |
|---|---|---|---|---|---|---|---|
| 1788353765 | 31.67° C | 90% | 1011.8 hPa | - | - | - | - |
| 1788352564 | 31.67° C | 86% | 1011.8 hPa | - | - | - | - |
| 1788351365 | 31.67° C | 84% | 1011.7 hPa | - | - | - | - |
| 1788350164 | 31.11° C | 83% | 1011.1 hPa | - | - | - | - |
| 1788348964 | 31.67° C | 81% | 1010.9 hPa | - | - | - | - |
| 1788347764 | 32.22° C | 83% | 1010.5 hPa | - | - | - | - |
| 1788346564 | 31.11° C | 83% | 1010.4 hPa | - | - | - | - |
| 1788345364 | 32.78° C | 77% | 1010.1 hPa | - | - | - | - |
| 1788342958 | 34.44° C | 66% | 1009.9 hPa | - | - | - | - |
| 1788341758 | 35° C | 68% | 1009.9 hPa | - | - | - | - |
| 1788340558 | 34.44° C | 66% | 1010.2 hPa | - | - | - | - |
| 1788339358 | 35° C | 63% | 1010.3 hPa | - | - | - | - |
| 1788338158 | 36.11° C | 57% | 1010.3 hPa | - | - | - | - |
| 1788336981 | 35° C | 59% | 1010.7 hPa | - | - | - | - |
| 1788335758 | 36.67° C | 54% | 1010.9 hPa | - | - | - | - |
| 1788334558 | 35.56° C | 56% | 1010.9 hPa | - | - | - | - |
| 1788333357 | 37.22° C | 53% | 1011 hPa | - | - | - | - |
| 1788332156 | 36.67° C | 53% | 1011.1 hPa | - | - | - | - |
| 1788330956 | 37.22° C | 50% | 1011.5 hPa | - | - | - | - |
| 1788329756 | 37.22° C | 45% | 1011.8 hPa | - | - | - | - |
| 1788328556 | 37.22° C | 43% | 1012 hPa | - | - | - | - |
| 1788327355 | 37.78° C | 40% | 1012.5 hPa | - | - | - | - |
| 1788326155 | 37.22° C | 43% | 1013 hPa | - | - | - | - |
| 1788324955 | 37.78° C | 41% | 1013.5 hPa | - | - | - | - |
| 1788323755 | 37.22° C | 51% | 1014 hPa | - | - | - | - |
* Rain since midnight (hover to see other rain measurements)
** Current wind speed in m/s (hover to see current wind gust speed)